createdAt,value
2023-03-02T04:41:39.161Z,79.30
2023-03-02T04:44:06.986Z,78.80
2023-03-02T04:46:35.561Z,79.10
2023-03-02T04:49:04.560Z,79.10
2023-03-02T04:51:35.071Z,79.40
2023-03-02T04:54:05.483Z,79.70
2023-03-02T04:56:33.729Z,79.80
2023-03-02T04:59:03.059Z,79.70
2023-03-02T05:01:30.958Z,79.80
2023-03-02T05:03:59.509Z,79.70
2023-03-02T05:06:28.666Z,79.90
2023-03-02T05:08:59.716Z,79.80
2023-03-02T05:11:28.093Z,79.70
2023-03-02T05:13:57.725Z,80.00
2023-03-02T05:16:29.651Z,80.10
2023-03-02T05:18:57.597Z,80.20
2023-03-02T05:21:26.027Z,80.00
2023-03-02T05:23:54.182Z,80.10
2023-03-02T05:26:22.140Z,80.00
2023-03-02T05:28:51.062Z,79.90
2023-03-02T05:31:23.245Z,79.80
2023-03-02T05:33:52.606Z,80.10
2023-03-02T05:36:22.919Z,80.00
2023-03-02T05:38:51.126Z,80.30
2023-03-02T05:41:19.268Z,80.00
2023-03-02T05:43:47.082Z,81.20
2023-03-02T05:46:16.979Z,80.00
2023-03-02T05:48:46.577Z,80.10
2023-03-02T05:51:15.844Z,80.10
2023-03-02T05:53:44.518Z,80.20
2023-03-02T05:56:12.604Z,79.80
2023-03-02T05:58:40.742Z,80.20
2023-03-02T06:01:10.328Z,80.30
2023-03-02T06:03:38.166Z,80.50
2023-03-02T06:06:06.304Z,80.40
2023-03-02T06:08:40.890Z,80.50
2023-03-02T06:11:09.663Z,80.50
2023-03-02T06:13:37.649Z,80.60
2023-03-02T06:16:06.152Z,80.60
2023-03-02T06:18:34.532Z,80.60
2023-03-02T06:21:02.783Z,80.60
2023-03-02T06:23:30.758Z,80.70
2023-03-02T06:26:00.594Z,80.50
2023-03-02T06:28:28.857Z,80.80
2023-03-02T06:30:56.661Z,80.70
2023-03-02T06:33:24.512Z,80.70
2023-03-02T06:35:52.530Z,80.70
2023-03-02T06:38:20.467Z,80.70
2023-03-02T06:40:48.357Z,80.70
2023-03-02T06:43:17.906Z,80.60
2023-03-02T06:45:45.836Z,80.80
2023-03-02T06:48:13.783Z,80.70
2023-03-02T06:50:41.624Z,80.60
2023-03-02T06:53:09.705Z,80.80
2023-03-02T06:55:37.562Z,80.70
2023-03-02T06:58:05.414Z,80.80
2023-03-02T07:00:34.618Z,80.80
2023-03-02T07:03:02.504Z,80.90
2023-03-02T07:05:32.180Z,80.90
2023-03-02T07:08:00.105Z,81.10
2023-03-02T07:10:28.137Z,81.00
2023-03-02T07:12:56.218Z,81.00
2023-03-02T07:15:24.107Z,81.00
2023-03-02T07:17:53.535Z,81.10
2023-03-02T07:20:21.473Z,82.20
2023-03-02T07:22:49.551Z,81.50
2023-03-02T07:25:17.983Z,81.50
2023-03-02T07:27:45.954Z,81.50
2023-03-02T07:30:14.838Z,81.80
2023-03-02T07:32:43.552Z,82.60
2023-03-02T07:35:13.211Z,82.00
2023-03-02T07:37:41.517Z,82.30
2023-03-02T07:40:13.226Z,81.90
2023-03-02T07:42:41.089Z,82.40
2023-03-02T07:45:09.758Z,82.50
2023-03-02T07:47:37.639Z,82.80
2023-03-02T07:50:06.061Z,82.70
2023-03-02T07:52:35.449Z,82.90
2023-03-02T07:55:03.402Z,82.70
2023-03-02T07:57:31.625Z,82.80
2023-03-02T07:59:59.403Z,82.30
2023-03-02T08:02:27.461Z,82.90
2023-03-02T08:04:55.439Z,83.00
2023-03-02T08:07:23.524Z,84.20
2023-03-02T08:09:52.857Z,83.10
2023-03-02T08:12:20.748Z,83.30
2023-03-02T08:14:48.926Z,81.90
2023-03-02T08:17:16.902Z,83.60
2023-03-02T08:19:45.523Z,83.40
2023-03-02T08:22:13.397Z,83.40
2023-03-02T08:24:42.126Z,83.50
2023-03-02T08:27:14.064Z,83.40
2023-03-02T08:29:42.102Z,83.80
2023-03-02T08:32:10.635Z,83.40
2023-03-02T08:34:38.617Z,83.40
2023-03-02T08:37:06.436Z,84.10
2023-03-02T08:39:34.571Z,83.30
2023-03-02T08:42:02.369Z,83.70
2023-03-02T08:44:31.812Z,83.40
2023-03-02T08:46:59.694Z,83.00
2023-03-02T08:49:27.820Z,83.30
2023-03-02T08:51:56.451Z,83.20
2023-03-02T08:54:24.293Z,83.30
2023-03-02T08:56:52.162Z,83.10
2023-03-02T08:59:21.532Z,82.80
2023-03-02T09:01:50.702Z,82.80
2023-03-02T09:04:18.614Z,83.00
2023-03-02T09:06:47.265Z,83.00
2023-03-02T09:09:15.912Z,83.00
2023-03-02T09:11:44.962Z,84.20
2023-03-02T09:14:13.020Z,82.60
2023-03-02T09:16:41.275Z,83.00
2023-03-02T09:19:12.884Z,82.30
2023-03-02T09:21:40.698Z,82.70
2023-03-02T09:24:08.913Z,82.20
2023-03-02T09:26:38.246Z,82.10
2023-03-02T09:29:07.071Z,82.10
2023-03-02T09:31:35.417Z,82.10
2023-03-02T09:34:03.785Z,82.10
2023-03-02T09:36:34.523Z,84.10
2023-03-02T09:39:08.427Z,82.30
2023-03-02T09:42:01.837Z,82.00
2023-03-02T09:44:53.771Z,82.20
2023-03-02T09:47:35.410Z,82.20
2023-03-02T09:50:12.191Z,82.10
2023-03-02T09:52:51.610Z,81.90
2023-03-02T09:55:23.308Z,81.80
2023-03-02T09:57:52.984Z,81.10
2023-03-02T10:00:28.103Z,81.00
2023-03-02T10:03:11.321Z,80.90
2023-03-02T10:05:46.418Z,80.90
2023-03-02T10:08:18.413Z,82.70
2023-03-02T10:10:49.264Z,80.20
2023-03-02T10:13:24.268Z,79.90
2023-03-02T10:16:14.152Z,79.80
2023-03-02T10:18:47.725Z,79.50
2023-03-02T10:21:23.529Z,78.80
2023-03-02T10:23:57.267Z,78.90
2023-03-02T10:26:37.456Z,77.90
2023-03-02T10:29:22.016Z,77.80
2023-03-02T10:31:55.600Z,77.90
2023-03-02T10:34:27.729Z,77.70
2023-03-02T10:36:55.720Z,77.50
2023-03-02T10:39:24.908Z,77.20
2023-03-02T10:41:57.247Z,76.70
2023-03-02T10:44:30.568Z,76.20
2023-03-02T10:46:59.234Z,76.10
2023-03-02T10:49:29.575Z,76.10
2023-03-02T10:52:02.332Z,76.10
2023-03-02T10:54:33.180Z,75.70
2023-03-02T10:57:02.963Z,75.60
2023-03-02T10:59:43.722Z,74.90
2023-03-02T11:02:18.405Z,74.10
2023-03-02T11:04:46.656Z,73.90
2023-03-02T11:07:18.659Z,73.20
2023-03-02T11:09:59.522Z,72.50
2023-03-02T11:12:27.490Z,72.60
2023-03-02T11:15:18.975Z,72.80
2023-03-02T11:17:52.076Z,72.30
2023-03-02T11:20:25.145Z,72.30
2023-03-02T11:23:19.462Z,72.20
2023-03-02T11:25:53.061Z,72.50
2023-03-02T11:28:37.861Z,72.00
2023-03-02T11:31:08.942Z,70.70
2023-03-02T11:33:45.039Z,70.60
2023-03-02T11:36:18.678Z,71.20
2023-03-02T11:38:49.744Z,70.50
2023-03-02T11:41:32.933Z,69.90
2023-03-02T11:44:03.198Z,68.20
2023-03-02T11:46:33.612Z,68.20
2023-03-02T11:49:06.574Z,67.60
2023-03-02T11:51:39.082Z,67.60
2023-03-02T11:54:23.337Z,67.60
2023-03-02T11:56:52.762Z,68.00
2023-03-02T11:59:24.603Z,67.80
2023-03-02T12:01:55.510Z,67.20
2023-03-02T12:04:29.779Z,66.70
2023-03-02T12:06:57.763Z,66.60
2023-03-02T12:09:44.022Z,66.70
2023-03-02T12:12:45.616Z,65.00
2023-03-02T12:15:39.357Z,64.80
2023-03-02T12:18:28.334Z,64.50
2023-03-02T12:21:01.719Z,65.10
2023-03-02T12:23:30.736Z,64.80
2023-03-02T12:26:08.711Z,65.40
2023-03-02T12:28:40.594Z,65.10
2023-03-02T12:31:14.147Z,65.30
2023-03-02T12:33:48.443Z,64.60
2023-03-02T12:36:20.929Z,63.90
2023-03-02T12:39:01.744Z,63.80
2023-03-02T12:41:41.439Z,62.60
2023-03-02T12:44:31.488Z,62.50
2023-03-02T12:47:02.961Z,62.20
2023-03-02T12:49:45.488Z,62.30
2023-03-02T12:52:24.258Z,62.40
2023-03-02T12:55:02.000Z,61.70
2023-03-02T12:57:30.501Z,61.70
2023-03-02T13:00:03.201Z,62.00
2023-03-02T13:02:33.212Z,61.80
2023-03-02T13:05:02.787Z,60.20
2023-03-02T13:07:37.401Z,59.80
2023-03-02T13:10:10.742Z,60.10
2023-03-02T13:12:45.429Z,60.10
2023-03-02T13:15:17.673Z,60.40
2023-03-02T13:17:53.212Z,60.30
2023-03-02T13:20:22.673Z,60.50
2023-03-02T13:22:51.088Z,60.10
2023-03-02T13:25:25.098Z,60.20
2023-03-02T13:27:54.031Z,59.70
2023-03-02T13:30:28.948Z,59.70
2023-03-02T13:33:01.660Z,59.80
2023-03-02T13:35:31.839Z,59.50
2023-03-02T13:38:04.366Z,60.90
2023-03-02T13:40:41.364Z,59.40
2023-03-02T13:43:32.925Z,58.50
2023-03-02T13:46:03.422Z,58.00
2023-03-02T13:48:32.332Z,59.10
2023-03-02T13:51:02.347Z,58.50
2023-03-02T13:53:34.647Z,58.40
2023-03-02T13:56:02.858Z,56.60
2023-03-02T13:58:33.577Z,57.60
2023-03-02T14:01:02.830Z,57.80
2023-03-02T14:03:31.894Z,58.00
2023-03-02T14:06:00.766Z,57.70
2023-03-02T14:08:28.609Z,57.20
2023-03-02T14:10:58.112Z,58.90
2023-03-02T14:13:28.699Z,60.10
2023-03-02T14:15:56.608Z,60.50
2023-03-02T14:18:33.784Z,60.50
2023-03-02T14:21:01.730Z,60.60
2023-03-02T14:23:29.823Z,60.80
2023-03-02T14:25:58.345Z,60.70
2023-03-02T14:28:30.679Z,60.60
2023-03-02T14:30:59.441Z,61.30
2023-03-02T14:33:28.786Z,61.00
2023-03-02T14:35:59.470Z,60.90
2023-03-02T14:38:28.456Z,60.40
2023-03-02T14:40:56.593Z,60.10
2023-03-02T14:43:25.316Z,59.10
2023-03-02T14:45:53.400Z,59.30
2023-03-02T14:48:21.314Z,59.10
2023-03-02T14:50:51.314Z,58.60
2023-03-02T14:53:28.998Z,58.70
2023-03-02T14:55:57.206Z,58.10
2023-03-02T14:58:31.362Z,57.60
2023-03-02T15:00:59.870Z,57.20
2023-03-02T15:03:29.664Z,57.80
2023-03-02T15:06:01.686Z,57.50
2023-03-02T15:08:30.979Z,57.70
2023-03-02T15:10:58.843Z,57.60
2023-03-02T15:13:26.747Z,57.70
2023-03-02T15:15:54.715Z,57.80
2023-03-02T15:18:22.624Z,57.80
2023-03-02T15:20:50.495Z,57.70
2023-03-02T15:23:20.225Z,56.90
2023-03-02T15:25:48.082Z,56.90
2023-03-02T15:28:16.210Z,57.10
2023-03-02T15:30:45.067Z,56.70
2023-03-02T15:33:13.415Z,55.80
2023-03-02T15:35:41.317Z,55.80
2023-03-02T15:38:09.362Z,55.00
2023-03-02T15:40:38.649Z,54.20
2023-03-02T15:43:06.723Z,53.80
2023-03-02T15:45:34.531Z,53.70
2023-03-02T15:48:02.367Z,53.90
2023-03-02T15:50:30.531Z,53.00
2023-03-02T15:52:58.500Z,52.90
2023-03-02T15:55:27.103Z,52.30
2023-03-02T15:57:58.801Z,52.30
2023-03-02T16:00:26.933Z,52.70
2023-03-02T16:02:54.756Z,52.80
2023-03-02T16:05:22.596Z,53.70
2023-03-02T16:07:50.481Z,53.60
2023-03-02T16:10:20.679Z,53.50
2023-03-02T16:12:48.565Z,54.20
2023-03-02T16:15:18.398Z,54.40
2023-03-02T16:17:46.256Z,54.20
2023-03-02T16:20:14.588Z,55.40
2023-03-02T16:22:42.940Z,55.50
2023-03-02T16:25:11.052Z,55.80
2023-03-02T16:27:38.901Z,55.90
2023-03-02T16:30:08.058Z,56.20
2023-03-02T16:32:37.379Z,56.60
2023-03-02T16:35:05.808Z,57.00
2023-03-02T16:37:33.711Z,57.40
2023-03-02T16:40:01.642Z,57.70
2023-03-02T16:42:30.577Z,58.00
2023-03-02T16:44:58.507Z,58.50
2023-03-02T16:47:26.452Z,58.80
2023-03-02T16:49:55.883Z,59.00
2023-03-02T16:52:23.827Z,58.80
2023-03-02T16:54:51.829Z,59.60
2023-03-02T16:57:19.699Z,60.10
2023-03-02T16:59:47.676Z,60.30
2023-03-02T17:02:16.348Z,60.80
2023-03-02T17:04:45.166Z,61.00
2023-03-02T17:07:14.586Z,64.10
2023-03-02T17:09:42.987Z,61.50
2023-03-02T17:12:10.838Z,61.80
2023-03-02T17:14:38.719Z,62.20
2023-03-02T17:17:06.587Z,61.90
2023-03-02T17:19:38.049Z,62.50
2023-03-02T17:22:07.128Z,62.70
2023-03-02T17:24:36.337Z,63.00
2023-03-02T17:27:08.588Z,63.20
2023-03-02T17:29:38.473Z,63.30
2023-03-02T17:32:06.669Z,63.60
2023-03-02T17:34:34.674Z,63.90
2023-03-02T17:37:02.508Z,64.00
2023-03-02T17:39:30.698Z,64.40
2023-03-02T17:41:59.936Z,64.50
2023-03-02T17:44:29.786Z,65.00
2023-03-02T17:46:57.635Z,65.00
2023-03-02T17:49:25.573Z,66.70
2023-03-02T17:51:53.460Z,65.00
2023-03-02T17:54:21.242Z,65.10
2023-03-02T17:56:49.157Z,65.50
2023-03-02T17:59:18.955Z,65.70
2023-03-02T18:01:46.765Z,65.80
2023-03-02T18:04:15.035Z,65.90
2023-03-02T18:06:43.696Z,65.90
2023-03-02T18:09:11.570Z,66.10
2023-03-02T18:11:41.423Z,66.60
2023-03-02T18:14:09.789Z,66.50
2023-03-02T18:16:38.951Z,66.70
2023-03-02T18:19:06.816Z,66.90
2023-03-02T18:21:36.284Z,66.60
2023-03-02T18:24:04.615Z,67.10
2023-03-02T18:26:32.834Z,67.10
2023-03-02T18:29:00.790Z,67.30
2023-03-02T18:31:28.896Z,68.50
2023-03-02T18:33:59.046Z,68.80
2023-03-02T18:36:28.973Z,68.20
2023-03-02T18:38:56.920Z,69.20
2023-03-02T18:41:25.471Z,69.60
2023-03-02T18:43:53.665Z,69.80
2023-03-02T18:46:24.696Z,69.20
2023-03-02T18:48:53.267Z,70.30
2023-03-02T18:51:23.716Z,70.20
2023-03-02T18:53:52.610Z,69.90
2023-03-02T18:56:21.886Z,70.30
2023-03-02T18:58:51.496Z,70.30
2023-03-02T19:01:20.089Z,70.40
2023-03-02T19:03:49.030Z,70.50
2023-03-02T19:06:17.652Z,69.40
2023-03-02T19:08:50.499Z,70.40
2023-03-02T19:11:19.153Z,70.30
2023-03-02T19:13:47.265Z,70.20
2023-03-02T19:16:17.229Z,70.10
2023-03-02T19:18:46.371Z,70.30
2023-03-02T19:21:14.688Z,71.30
2023-03-02T19:23:45.461Z,70.40
2023-03-02T19:26:15.526Z,70.70
2023-03-02T19:28:44.496Z,70.70
2023-03-02T19:31:13.578Z,71.00
2023-03-02T19:33:42.668Z,71.30
2023-03-02T19:36:10.942Z,71.30
2023-03-02T19:38:41.564Z,71.30
2023-03-02T19:41:11.696Z,71.40
2023-03-02T19:43:41.908Z,71.80
2023-03-02T19:46:11.664Z,71.50
2023-03-02T19:48:40.040Z,71.80
2023-03-02T19:51:09.050Z,72.00
2023-03-02T19:53:38.777Z,72.10
2023-03-02T19:56:08.751Z,72.10
2023-03-02T19:58:37.001Z,72.20
2023-03-02T20:01:06.382Z,72.00
2023-03-02T20:03:34.264Z,72.10
2023-03-02T20:06:03.151Z,72.10
2023-03-02T20:08:31.009Z,72.20
2023-03-02T20:10:59.105Z,72.00
2023-03-02T20:13:27.369Z,72.40
2023-03-02T20:15:55.578Z,72.60
2023-03-02T20:18:24.878Z,72.40
2023-03-02T20:20:52.743Z,72.90
2023-03-02T20:23:20.695Z,72.90
2023-03-02T20:25:48.652Z,73.00
2023-03-02T20:28:20.640Z,73.10
2023-03-02T20:30:51.484Z,72.80
2023-03-02T20:33:22.334Z,73.20
2023-03-02T20:35:52.659Z,73.80
2023-03-02T20:38:23.729Z,74.90
2023-03-02T20:40:51.926Z,74.00
2023-03-02T20:43:20.726Z,74.80
2023-03-02T20:45:52.105Z,74.40
2023-03-02T20:48:22.128Z,74.50
2023-03-02T20:50:52.226Z,74.50
2023-03-02T20:53:20.243Z,74.90
2023-03-02T20:55:48.307Z,75.50
2023-03-02T20:58:16.289Z,74.80
2023-03-02T21:00:45.173Z,75.10
2023-03-02T21:03:14.613Z,75.20
2023-03-02T21:05:44.635Z,75.60
2023-03-02T21:08:15.592Z,75.60
2023-03-02T21:10:44.708Z,75.70
2023-03-02T21:13:13.220Z,75.80
2023-03-02T21:15:41.762Z,75.70
2023-03-02T21:18:10.130Z,76.00
2023-03-02T21:20:39.000Z,76.10
2023-03-02T21:23:07.738Z,76.20
2023-03-02T21:25:37.389Z,76.30
2023-03-02T21:28:05.347Z,76.50
2023-03-02T21:30:34.906Z,76.30
2023-03-02T21:33:03.494Z,76.70
2023-03-02T21:35:32.039Z,76.80
2023-03-02T21:38:04.636Z,77.00
2023-03-02T21:40:34.567Z,77.40
2023-03-02T21:43:05.774Z,77.30
2023-03-02T21:45:34.079Z,77.60
2023-03-02T21:48:01.996Z,77.40
2023-03-02T21:50:33.223Z,77.40
2023-03-02T21:53:01.335Z,77.80
2023-03-02T21:55:30.782Z,77.70
2023-03-02T21:57:59.416Z,77.80
2023-03-02T22:00:32.140Z,77.90
2023-03-02T22:02:59.999Z,78.20
2023-03-02T22:05:28.570Z,77.80
2023-03-02T22:07:56.568Z,78.00
2023-03-02T22:10:27.624Z,77.90
2023-03-02T22:12:58.574Z,78.30
2023-03-02T22:15:28.142Z,78.20
2023-03-02T22:17:56.547Z,78.30
2023-03-02T22:20:24.596Z,78.30
2023-03-02T22:22:55.243Z,78.50
2023-03-02T22:25:23.292Z,78.80
2023-03-02T22:27:51.607Z,78.60
2023-03-02T22:30:23.437Z,78.50
2023-03-02T22:32:52.652Z,78.90
2023-03-02T22:35:23.985Z,78.70
2023-03-02T22:37:52.849Z,79.00
2023-03-02T22:40:29.793Z,79.60
2023-03-02T22:43:10.898Z,79.30
2023-03-02T22:45:40.292Z,79.90
2023-03-02T22:48:16.443Z,79.80
2023-03-02T22:50:46.421Z,79.80
2023-03-02T22:53:30.610Z,80.20
2023-03-02T22:56:00.947Z,80.50
2023-03-02T22:58:31.972Z,80.30
2023-03-02T23:01:01.040Z,80.50
2023-03-02T23:03:39.787Z,80.30
2023-03-02T23:06:23.518Z,80.60
2023-03-02T23:08:52.064Z,80.50
2023-03-02T23:11:22.256Z,80.00
2023-03-02T23:13:50.767Z,80.00
2023-03-02T23:16:21.775Z,79.90
2023-03-02T23:18:51.937Z,80.00
2023-03-02T23:21:22.406Z,80.10
2023-03-02T23:23:51.232Z,80.30
2023-03-02T23:26:20.145Z,80.30
2023-03-02T23:28:49.906Z,80.20
2023-03-02T23:31:19.375Z,80.30
2023-03-02T23:33:47.226Z,80.00
2023-03-02T23:36:16.731Z,80.10
2023-03-02T23:38:45.633Z,80.40
2023-03-02T23:41:13.849Z,80.20
2023-03-02T23:43:42.339Z,80.20
2023-03-02T23:46:13.843Z,80.20
2023-03-02T23:48:41.981Z,80.30
2023-03-02T23:51:10.221Z,80.30
2023-03-02T23:53:39.912Z,80.30
2023-03-02T23:56:08.157Z,80.40
2023-03-02T23:58:36.316Z,80.40
